sensor_id;sensor_type;location;lat;lon;timestamp;P1;P2;P0
49708;PMS5003;35601;55.902;13.606;2023-07-22T00:01:09;4;4;
49708;PMS5003;35601;55.902;13.606;2023-07-22T00:03:35;5;4;
49708;PMS5003;35601;55.902;13.606;2023-07-22T00:06:03;7;6;
49708;PMS5003;35601;55.902;13.606;2023-07-22T00:08:25;5;4;
49708;PMS5003;35601;55.902;13.606;2023-07-22T00:10:50;4;4;
49708;PMS5003;35601;55.902;13.606;2023-07-22T00:13:15;6;6;
49708;PMS5003;35601;55.902;13.606;2023-07-22T00:15:41;5;2;
49708;PMS5003;35601;55.902;13.606;2023-07-22T00:18:06;5;4;
49708;PMS5003;35601;55.902;13.606;2023-07-22T00:20:31;2;2;
49708;PMS5003;35601;55.902;13.606;2023-07-22T00:22:56;7;7;
49708;PMS5003;35601;55.902;13.606;2023-07-22T00:25:22;4;4;
49708;PMS5003;35601;55.902;13.606;2023-07-22T00:27:47;4;4;
49708;PMS5003;35601;55.902;13.606;2023-07-22T00:30:12;6;3;
49708;PMS5003;35601;55.902;13.606;2023-07-22T00:32:37;3;3;
49708;PMS5003;35601;55.902;13.606;2023-07-22T00:35:03;4;4;
49708;PMS5003;35601;55.902;13.606;2023-07-22T00:37:28;7;4;
49708;PMS5003;35601;55.902;13.606;2023-07-22T00:39:53;3;3;
49708;PMS5003;35601;55.902;13.606;2023-07-22T00:42:18;3;3;
49708;PMS5003;35601;55.902;13.606;2023-07-22T00:44:43;4;4;
49708;PMS5003;35601;55.902;13.606;2023-07-22T00:47:08;4;4;
49708;PMS5003;35601;55.902;13.606;2023-07-22T00:49:34;4;4;
49708;PMS5003;35601;55.902;13.606;2023-07-22T00:52:00;6;4;
49708;PMS5003;35601;55.902;13.606;2023-07-22T00:54:24;5;5;
49708;PMS5003;35601;55.902;13.606;2023-07-22T00:56:49;3;3;
49708;PMS5003;35601;55.902;13.606;2023-07-22T00:59:15;5;5;
49708;PMS5003;35601;55.902;13.606;2023-07-22T01:01:40;4;4;
49708;PMS5003;35601;55.902;13.606;2023-07-22T01:04:05;4;4;
49708;PMS5003;35601;55.902;13.606;2023-07-22T01:06:30;6;5;
49708;PMS5003;35601;55.902;13.606;2023-07-22T01:08:56;5;5;
49708;PMS5003;35601;55.902;13.606;2023-07-22T01:11:21;7;7;
49708;PMS5003;35601;55.902;13.606;2023-07-22T01:13:46;6;6;
49708;PMS5003;35601;55.902;13.606;2023-07-22T01:16:11;10;8;
49708;PMS5003;35601;55.902;13.606;2023-07-22T01:18:36;7;7;
49708;PMS5003;35601;55.902;13.606;2023-07-22T01:21:02;10;8;
49708;PMS5003;35601;55.902;13.606;2023-07-22T01:23:27;6;6;
49708;PMS5003;35601;55.902;13.606;2023-07-22T01:25:52;4;4;
49708;PMS5003;35601;55.902;13.606;2023-07-22T01:28:17;5;5;
49708;PMS5003;35601;55.902;13.606;2023-07-22T01:30:43;5;5;
49708;PMS5003;35601;55.902;13.606;2023-07-22T01:33:08;13;7;
49708;PMS5003;35601;55.902;13.606;2023-07-22T01:35:33;5;5;
49708;PMS5003;35601;55.902;13.606;2023-07-22T01:37:58;5;3;
49708;PMS5003;35601;55.902;13.606;2023-07-22T01:40:24;8;5;
49708;PMS5003;35601;55.902;13.606;2023-07-22T01:42:49;7;5;
49708;PMS5003;35601;55.902;13.606;2023-07-22T01:45:14;6;5;
49708;PMS5003;35601;55.902;13.606;2023-07-22T01:47:39;4;4;
49708;PMS5003;35601;55.902;13.606;2023-07-22T01:50:06;5;5;
49708;PMS5003;35601;55.902;13.606;2023-07-22T01:52:30;3;3;
49708;PMS5003;35601;55.902;13.606;2023-07-22T01:54:55;5;5;
49708;PMS5003;35601;55.902;13.606;2023-07-22T01:57:21;5;4;
49708;PMS5003;35601;55.902;13.606;2023-07-22T01:59:46;6;5;
49708;PMS5003;35601;55.902;13.606;2023-07-22T02:02:11;4;4;
49708;PMS5003;35601;55.902;13.606;2023-07-22T02:04:36;5;4;
49708;PMS5003;35601;55.902;13.606;2023-07-22T02:07:01;2;2;
49708;PMS5003;35601;55.902;13.606;2023-07-22T02:09:27;6;3;
49708;PMS5003;35601;55.902;13.606;2023-07-22T02:11:52;5;4;
49708;PMS5003;35601;55.902;13.606;2023-07-22T02:14:17;5;4;
49708;PMS5003;35601;55.902;13.606;2023-07-22T02:16:42;4;4;
49708;PMS5003;35601;55.902;13.606;2023-07-22T02:19:07;5;5;
49708;PMS5003;35601;55.902;13.606;2023-07-22T02:21:32;6;4;
49708;PMS5003;35601;55.902;13.606;2023-07-22T02:23:58;4;2;
49708;PMS5003;35601;55.902;13.606;2023-07-22T02:26:23;6;6;
49708;PMS5003;35601;55.902;13.606;2023-07-22T02:28:48;4;4;
49708;PMS5003;35601;55.902;13.606;2023-07-22T02:31:13;2;2;
49708;PMS5003;35601;55.902;13.606;2023-07-22T02:33:38;4;4;
49708;PMS5003;35601;55.902;13.606;2023-07-22T02:36:04;3;3;
49708;PMS5003;35601;55.902;13.606;2023-07-22T02:38:29;6;6;
49708;PMS5003;35601;55.902;13.606;2023-07-22T02:40:55;5;3;
49708;PMS5003;35601;55.902;13.606;2023-07-22T02:43:20;4;4;
49708;PMS5003;35601;55.902;13.606;2023-07-22T02:45:45;6;5;
49708;PMS5003;35601;55.902;13.606;2023-07-22T02:48:10;6;6;
49708;PMS5003;35601;55.902;13.606;2023-07-22T02:50:35;5;4;
49708;PMS5003;35601;55.902;13.606;2023-07-22T02:53:01;5;5;
49708;PMS5003;35601;55.902;13.606;2023-07-22T02:55:26;6;5;
49708;PMS5003;35601;55.902;13.606;2023-07-22T02:57:51;6;3;
49708;PMS5003;35601;55.902;13.606;2023-07-22T03:00:17;4;4;
49708;PMS5003;35601;55.902;13.606;2023-07-22T03:02:41;6;6;
49708;PMS5003;35601;55.902;13.606;2023-07-22T03:05:07;7;7;
49708;PMS5003;35601;55.902;13.606;2023-07-22T03:07:32;6;6;
49708;PMS5003;35601;55.902;13.606;2023-07-22T03:09:57;4;4;
49708;PMS5003;35601;55.902;13.606;2023-07-22T03:12:23;6;6;
49708;PMS5003;35601;55.902;13.606;2023-07-22T03:14:48;5;5;
49708;PMS5003;35601;55.902;13.606;2023-07-22T03:17:14;5;5;
49708;PMS5003;35601;55.902;13.606;2023-07-22T03:19:39;4;4;
49708;PMS5003;35601;55.902;13.606;2023-07-22T03:22:04;5;5;
49708;PMS5003;35601;55.902;13.606;2023-07-22T03:24:29;5;4;
49708;PMS5003;35601;55.902;13.606;2023-07-22T03:26:55;5;4;
49708;PMS5003;35601;55.902;13.606;2023-07-22T03:29:20;5;5;
49708;PMS5003;35601;55.902;13.606;2023-07-22T03:31:45;4;4;
49708;PMS5003;35601;55.902;13.606;2023-07-22T03:34:10;5;5;
49708;PMS5003;35601;55.902;13.606;2023-07-22T03:36:35;4;4;
49708;PMS5003;35601;55.902;13.606;2023-07-22T03:39:01;4;4;
49708;PMS5003;35601;55.902;13.606;2023-07-22T03:41:26;5;5;
49708;PMS5003;35601;55.902;13.606;2023-07-22T03:43:51;3;3;
49708;PMS5003;35601;55.902;13.606;2023-07-22T03:46:16;6;6;
49708;PMS5003;35601;55.902;13.606;2023-07-22T03:48:42;7;6;
49708;PMS5003;35601;55.902;13.606;2023-07-22T03:51:07;6;4;
49708;PMS5003;35601;55.902;13.606;2023-07-22T03:53:32;4;4;
49708;PMS5003;35601;55.902;13.606;2023-07-22T03:55:57;7;5;
49708;PMS5003;35601;55.902;13.606;2023-07-22T03:58:23;5;5;
49708;PMS5003;35601;55.902;13.606;2023-07-22T04:00:48;4;4;
49708;PMS5003;35601;55.902;13.606;2023-07-22T04:03:13;6;5;
49708;PMS5003;35601;55.902;13.606;2023-07-22T04:05:38;7;4;
49708;PMS5003;35601;55.902;13.606;2023-07-22T04:08:04;7;7;
49708;PMS5003;35601;55.902;13.606;2023-07-22T04:10:29;4;4;
49708;PMS5003;35601;55.902;13.606;2023-07-22T04:12:54;4;4;
49708;PMS5003;35601;55.902;13.606;2023-07-22T04:15:20;4;3;
49708;PMS5003;35601;55.902;13.606;2023-07-22T04:17:45;6;4;
49708;PMS5003;35601;55.902;13.606;2023-07-22T04:20:10;4;4;
49708;PMS5003;35601;55.902;13.606;2023-07-22T04:22:35;3;3;
49708;PMS5003;35601;55.902;13.606;2023-07-22T04:25:00;6;5;
49708;PMS5003;35601;55.902;13.606;2023-07-22T04:27:26;5;5;
49708;PMS5003;35601;55.902;13.606;2023-07-22T04:29:51;5;4;
49708;PMS5003;35601;55.902;13.606;2023-07-22T04:32:16;5;5;
49708;PMS5003;35601;55.902;13.606;2023-07-22T04:34:41;5;5;
49708;PMS5003;35601;55.902;13.606;2023-07-22T04:37:07;6;4;
49708;PMS5003;35601;55.902;13.606;2023-07-22T04:39:32;4;3;
49708;PMS5003;35601;55.902;13.606;2023-07-22T04:41:57;6;5;
49708;PMS5003;35601;55.902;13.606;2023-07-22T04:44:23;3;3;
49708;PMS5003;35601;55.902;13.606;2023-07-22T04:46:48;6;6;
49708;PMS5003;35601;55.902;13.606;2023-07-22T04:49:13;7;4;
49708;PMS5003;35601;55.902;13.606;2023-07-22T04:51:39;4;4;
49708;PMS5003;35601;55.902;13.606;2023-07-22T04:54:04;3;3;
49708;PMS5003;35601;55.902;13.606;2023-07-22T04:56:29;7;7;
49708;PMS5003;35601;55.902;13.606;2023-07-22T04:58:55;6;6;
49708;PMS5003;35601;55.902;13.606;2023-07-22T05:01:20;6;4;
49708;PMS5003;35601;55.902;13.606;2023-07-22T05:03:45;5;5;
49708;PMS5003;35601;55.902;13.606;2023-07-22T05:06:11;7;5;
49708;PMS5003;35601;55.902;13.606;2023-07-22T05:08:36;5;5;
49708;PMS5003;35601;55.902;13.606;2023-07-22T05:11:01;6;5;
49708;PMS5003;35601;55.902;13.606;2023-07-22T05:13:26;6;5;
49708;PMS5003;35601;55.902;13.606;2023-07-22T05:15:52;4;4;
49708;PMS5003;35601;55.902;13.606;2023-07-22T05:18:17;6;4;
49708;PMS5003;35601;55.902;13.606;2023-07-22T05:20:43;5;5;
49708;PMS5003;35601;55.902;13.606;2023-07-22T05:23:08;8;7;
49708;PMS5003;35601;55.902;13.606;2023-07-22T05:25:33;6;6;
49708;PMS5003;35601;55.902;13.606;2023-07-22T05:27:58;5;5;
49708;PMS5003;35601;55.902;13.606;2023-07-22T05:30:24;5;5;
49708;PMS5003;35601;55.902;13.606;2023-07-22T05:32:51;5;5;
49708;PMS5003;35601;55.902;13.606;2023-07-22T05:35:14;6;6;
49708;PMS5003;35601;55.902;13.606;2023-07-22T05:37:40;7;6;
49708;PMS5003;35601;55.902;13.606;2023-07-22T05:40:05;9;7;
49708;PMS5003;35601;55.902;13.606;2023-07-22T05:42:30;7;6;
49708;PMS5003;35601;55.902;13.606;2023-07-22T05:44:57;5;5;
49708;PMS5003;35601;55.902;13.606;2023-07-22T05:47:21;5;5;
49708;PMS5003;35601;55.902;13.606;2023-07-22T05:49:45;8;7;
49708;PMS5003;35601;55.902;13.606;2023-07-22T05:52:11;4;4;
49708;PMS5003;35601;55.902;13.606;2023-07-22T05:54:36;7;5;
49708;PMS5003;35601;55.902;13.606;2023-07-22T05:57:01;9;7;
49708;PMS5003;35601;55.902;13.606;2023-07-22T05:59:26;6;4;
49708;PMS5003;35601;55.902;13.606;2023-07-22T06:01:51;5;5;
49708;PMS5003;35601;55.902;13.606;2023-07-22T06:04:16;5;5;
49708;PMS5003;35601;55.902;13.606;2023-07-22T06:06:42;7;7;
49708;PMS5003;35601;55.902;13.606;2023-07-22T06:09:07;5;5;
49708;PMS5003;35601;55.902;13.606;2023-07-22T06:11:32;5;5;
49708;PMS5003;35601;55.902;13.606;2023-07-22T06:13:57;6;6;
49708;PMS5003;35601;55.902;13.606;2023-07-22T06:16:22;5;5;
49708;PMS5003;35601;55.902;13.606;2023-07-22T06:18:47;7;6;
49708;PMS5003;35601;55.902;13.606;2023-07-22T06:21:13;4;4;
49708;PMS5003;35601;55.902;13.606;2023-07-22T06:23:38;6;6;
49708;PMS5003;35601;55.902;13.606;2023-07-22T06:26:03;5;5;
49708;PMS5003;35601;55.902;13.606;2023-07-22T06:28:28;8;6;
49708;PMS5003;35601;55.902;13.606;2023-07-22T06:30:53;5;5;
49708;PMS5003;35601;55.902;13.606;2023-07-22T06:33:18;9;6;
49708;PMS5003;35601;55.902;13.606;2023-07-22T06:35:44;6;6;
49708;PMS5003;35601;55.902;13.606;2023-07-22T06:38:09;6;5;
49708;PMS5003;35601;55.902;13.606;2023-07-22T06:40:34;5;5;
49708;PMS5003;35601;55.902;13.606;2023-07-22T06:42:59;7;7;
49708;PMS5003;35601;55.902;13.606;2023-07-22T06:45:24;7;7;
49708;PMS5003;35601;55.902;13.606;2023-07-22T06:47:49;10;8;
49708;PMS5003;35601;55.902;13.606;2023-07-22T06:50:14;9;8;
49708;PMS5003;35601;55.902;13.606;2023-07-22T06:52:40;11;9;
49708;PMS5003;35601;55.902;13.606;2023-07-22T06:55:05;8;7;
49708;PMS5003;35601;55.902;13.606;2023-07-22T06:57:30;6;6;
49708;PMS5003;35601;55.902;13.606;2023-07-22T06:59:55;6;5;
49708;PMS5003;35601;55.902;13.606;2023-07-22T07:02:20;10;8;
49708;PMS5003;35601;55.902;13.606;2023-07-22T07:04:45;6;6;
49708;PMS5003;35601;55.902;13.606;2023-07-22T07:07:12;6;5;
49708;PMS5003;35601;55.902;13.606;2023-07-22T07:09:36;7;6;
49708;PMS5003;35601;55.902;13.606;2023-07-22T07:12:01;5;5;
49708;PMS5003;35601;55.902;13.606;2023-07-22T07:14:26;5;5;
49708;PMS5003;35601;55.902;13.606;2023-07-22T07:16:51;6;6;
49708;PMS5003;35601;55.902;13.606;2023-07-22T07:19:17;4;4;
49708;PMS5003;35601;55.902;13.606;2023-07-22T07:21:42;5;4;
49708;PMS5003;35601;55.902;13.606;2023-07-22T07:24:07;6;5;
49708;PMS5003;35601;55.902;13.606;2023-07-22T07:26:32;5;5;
49708;PMS5003;35601;55.902;13.606;2023-07-22T07:28:57;6;6;
49708;PMS5003;35601;55.902;13.606;2023-07-22T07:31:22;4;4;
49708;PMS5003;35601;55.902;13.606;2023-07-22T07:33:47;5;5;
49708;PMS5003;35601;55.902;13.606;2023-07-22T07:36:12;3;3;
49708;PMS5003;35601;55.902;13.606;2023-07-22T07:38:38;4;4;
49708;PMS5003;35601;55.902;13.606;2023-07-22T07:41:03;4;3;
49708;PMS5003;35601;55.902;13.606;2023-07-22T07:43:28;5;5;
49708;PMS5003;35601;55.902;13.606;2023-07-22T07:48:18;1;1;
49708;PMS5003;35601;55.902;13.606;2023-07-22T07:50:43;1;1;
49708;PMS5003;35601;55.902;13.606;2023-07-22T07:53:08;2;2;
49708;PMS5003;35601;55.902;13.606;2023-07-22T07:55:34;1;1;
49708;PMS5003;35601;55.902;13.606;2023-07-22T07:57:59;2;2;
49708;PMS5003;35601;55.902;13.606;2023-07-22T08:00:24;1;1;
49708;PMS5003;35601;55.902;13.606;2023-07-22T08:02:49;0;0;
49708;PMS5003;35601;55.902;13.606;2023-07-22T08:05:14;1;1;
49708;PMS5003;35601;55.902;13.606;2023-07-22T08:07:39;4;2;
49708;PMS5003;35601;55.902;13.606;2023-07-22T08:10:05;2;2;
49708;PMS5003;35601;55.902;13.606;2023-07-22T08:12:30;5;4;
49708;PMS5003;35601;55.902;13.606;2023-07-22T08:14:54;4;2;
49708;PMS5003;35601;55.902;13.606;2023-07-22T08:17:20;2;2;
49708;PMS5003;35601;55.902;13.606;2023-07-22T08:19:45;2;2;
49708;PMS5003;35601;55.902;13.606;2023-07-22T08:22:10;2;2;
49708;PMS5003;35601;55.902;13.606;2023-07-22T08:24:35;4;4;
49708;PMS5003;35601;55.902;13.606;2023-07-22T08:27:01;2;2;
49708;PMS5003;35601;55.902;13.606;2023-07-22T08:29:26;4;2;
49708;PMS5003;35601;55.902;13.606;2023-07-22T08:31:51;1;1;
49708;PMS5003;35601;55.902;13.606;2023-07-22T08:34:16;3;3;
49708;PMS5003;35601;55.902;13.606;2023-07-22T08:36:41;2;2;
49708;PMS5003;35601;55.902;13.606;2023-07-22T08:39:06;1;1;
49708;PMS5003;35601;55.902;13.606;2023-07-22T08:41:31;2;2;
49708;PMS5003;35601;55.902;13.606;2023-07-22T08:43:56;1;1;
49708;PMS5003;35601;55.902;13.606;2023-07-22T08:46:22;2;2;
49708;PMS5003;35601;55.902;13.606;2023-07-22T08:48:47;2;2;
49708;PMS5003;35601;55.902;13.606;2023-07-22T08:51:13;2;2;
49708;PMS5003;35601;55.902;13.606;2023-07-22T08:53:37;1;1;
49708;PMS5003;35601;55.902;13.606;2023-07-22T08:56:02;0;0;
49708;PMS5003;35601;55.902;13.606;2023-07-22T08:58:27;2;0;
49708;PMS5003;35601;55.902;13.606;2023-07-22T09:00:52;0;0;
49708;PMS5003;35601;55.902;13.606;2023-07-22T09:03:17;0;0;
49708;PMS5003;35601;55.902;13.606;2023-07-22T09:05:42;0;0;
49708;PMS5003;35601;55.902;13.606;2023-07-22T09:08:07;1;1;
49708;PMS5003;35601;55.902;13.606;2023-07-22T09:10:33;1;1;
49708;PMS5003;35601;55.902;13.606;2023-07-22T09:12:58;0;0;
49708;PMS5003;35601;55.902;13.606;2023-07-22T09:15:23;0;0;
49708;PMS5003;35601;55.902;13.606;2023-07-22T09:17:48;1;1;
49708;PMS5003;35601;55.902;13.606;2023-07-22T09:20:13;1;1;
49708;PMS5003;35601;55.902;13.606;2023-07-22T09:22:38;1;1;
49708;PMS5003;35601;55.902;13.606;2023-07-22T09:27:33;1;1;
49708;PMS5003;35601;55.902;13.606;2023-07-22T09:29:53;0;0;
49708;PMS5003;35601;55.902;13.606;2023-07-22T09:32:21;0;0;
49708;PMS5003;35601;55.902;13.606;2023-07-22T09:37:08;0;0;
49708;PMS5003;35601;55.902;13.606;2023-07-22T09:39:34;0;0;
49708;PMS5003;35601;55.902;13.606;2023-07-22T09:41:59;0;0;
49708;PMS5003;35601;55.902;13.606;2023-07-22T09:44:27;2;0;
49708;PMS5003;35601;55.902;13.606;2023-07-22T09:46:49;1;1;
49708;PMS5003;35601;55.902;13.606;2023-07-22T09:49:15;0;0;
49708;PMS5003;35601;55.902;13.606;2023-07-22T09:51:39;0;0;
49708;PMS5003;35601;55.902;13.606;2023-07-22T09:54:04;0;0;
49708;PMS5003;35601;55.902;13.606;2023-07-22T09:56:29;1;1;
49708;PMS5003;35601;55.902;13.606;2023-07-22T09:58:54;2;2;
49708;PMS5003;35601;55.902;13.606;2023-07-22T10:01:20;0;0;
49708;PMS5003;35601;55.902;13.606;2023-07-22T10:03:44;1;1;
49708;PMS5003;35601;55.902;13.606;2023-07-22T10:06:09;0;0;
49708;PMS5003;35601;55.902;13.606;2023-07-22T10:08:34;0;0;
49708;PMS5003;35601;55.902;13.606;2023-07-22T10:10:59;1;0;
49708;PMS5003;35601;55.902;13.606;2023-07-22T10:13:24;1;1;
49708;PMS5003;35601;55.902;13.606;2023-07-22T10:15:50;1;0;
49708;PMS5003;35601;55.902;13.606;2023-07-22T10:18:15;0;0;
49708;PMS5003;35601;55.902;13.606;2023-07-22T10:20:40;0;0;
49708;PMS5003;35601;55.902;13.606;2023-07-22T10:23:05;0;0;
49708;PMS5003;35601;55.902;13.606;2023-07-22T10:25:30;1;1;
49708;PMS5003;35601;55.902;13.606;2023-07-22T10:27:55;0;0;
49708;PMS5003;35601;55.902;13.606;2023-07-22T10:30:20;1;1;
49708;PMS5003;35601;55.902;13.606;2023-07-22T10:32:46;0;0;
49708;PMS5003;35601;55.902;13.606;2023-07-22T10:35:11;0;0;
49708;PMS5003;35601;55.902;13.606;2023-07-22T10:37:35;0;0;
49708;PMS5003;35601;55.902;13.606;2023-07-22T10:40:01;1;1;
49708;PMS5003;35601;55.902;13.606;2023-07-22T10:42:25;1;1;
49708;PMS5003;35601;55.902;13.606;2023-07-22T10:44:50;2;1;
49708;PMS5003;35601;55.902;13.606;2023-07-22T10:49:44;1;1;
49708;PMS5003;35601;55.902;13.606;2023-07-22T10:52:06;0;0;
49708;PMS5003;35601;55.902;13.606;2023-07-22T10:54:31;1;1;
49708;PMS5003;35601;55.902;13.606;2023-07-22T10:56:56;1;1;
49708;PMS5003;35601;55.902;13.606;2023-07-22T10:59:25;1;1;
49708;PMS5003;35601;55.902;13.606;2023-07-22T11:01:46;1;1;
49708;PMS5003;35601;55.902;13.606;2023-07-22T11:04:12;0;0;
49708;PMS5003;35601;55.902;13.606;2023-07-22T11:06:36;3;3;
49708;PMS5003;35601;55.902;13.606;2023-07-22T11:09:01;1;1;
49708;PMS5003;35601;55.902;13.606;2023-07-22T11:13:51;1;1;
49708;PMS5003;35601;55.902;13.606;2023-07-22T11:16:16;0;0;
49708;PMS5003;35601;55.902;13.606;2023-07-22T11:18:41;1;1;
49708;PMS5003;35601;55.902;13.606;2023-07-22T11:21:07;0;0;
49708;PMS5003;35601;55.902;13.606;2023-07-22T11:23:33;1;1;
49708;PMS5003;35601;55.902;13.606;2023-07-22T11:25:57;1;1;
49708;PMS5003;35601;55.902;13.606;2023-07-22T11:28:22;0;0;
49708;PMS5003;35601;55.902;13.606;2023-07-22T11:30:47;1;1;
49708;PMS5003;35601;55.902;13.606;2023-07-22T11:33:12;1;1;
49708;PMS5003;35601;55.902;13.606;2023-07-22T11:35:37;0;0;
49708;PMS5003;35601;55.902;13.606;2023-07-22T11:38:03;1;1;
49708;PMS5003;35601;55.902;13.606;2023-07-22T11:42:53;2;1;
49708;PMS5003;35601;55.902;13.606;2023-07-22T11:45:17;2;2;
49708;PMS5003;35601;55.902;13.606;2023-07-22T11:47:42;1;1;
49708;PMS5003;35601;55.902;13.606;2023-07-22T11:50:08;1;1;
49708;PMS5003;35601;55.902;13.606;2023-07-22T11:52:32;1;1;
49708;PMS5003;35601;55.902;13.606;2023-07-22T11:55:01;1;1;
49708;PMS5003;35601;55.902;13.606;2023-07-22T11:57:23;0;0;
49708;PMS5003;35601;55.902;13.606;2023-07-22T11:59:48;0;0;
49708;PMS5003;35601;55.902;13.606;2023-07-22T12:02:13;1;1;
49708;PMS5003;35601;55.902;13.606;2023-07-22T12:04:38;1;1;
49708;PMS5003;35601;55.902;13.606;2023-07-22T12:07:04;4;4;
49708;PMS5003;35601;55.902;13.606;2023-07-22T12:09:29;1;1;
49708;PMS5003;35601;55.902;13.606;2023-07-22T12:11:55;2;2;
49708;PMS5003;35601;55.902;13.606;2023-07-22T12:14:19;1;1;
49708;PMS5003;35601;55.902;13.606;2023-07-22T12:16:44;0;0;
49708;PMS5003;35601;55.902;13.606;2023-07-22T12:19:09;1;1;
49708;PMS5003;35601;55.902;13.606;2023-07-22T12:21:34;2;1;
49708;PMS5003;35601;55.902;13.606;2023-07-22T12:23:59;1;1;
49708;PMS5003;35601;55.902;13.606;2023-07-22T12:26:24;1;1;
49708;PMS5003;35601;55.902;13.606;2023-07-22T12:28:49;1;1;
49708;PMS5003;35601;55.902;13.606;2023-07-22T12:31:14;1;1;
49708;PMS5003;35601;55.902;13.606;2023-07-22T12:33:40;1;1;
49708;PMS5003;35601;55.902;13.606;2023-07-22T12:36:05;1;1;
49708;PMS5003;35601;55.902;13.606;2023-07-22T12:38:30;1;1;
49708;PMS5003;35601;55.902;13.606;2023-07-22T12:40:55;1;1;
49708;PMS5003;35601;55.902;13.606;2023-07-22T12:43:20;1;1;
49708;PMS5003;35601;55.902;13.606;2023-07-22T12:45:45;2;2;
49708;PMS5003;35601;55.902;13.606;2023-07-22T12:48:10;1;1;
49708;PMS5003;35601;55.902;13.606;2023-07-22T12:50:35;1;1;
49708;PMS5003;35601;55.902;13.606;2023-07-22T12:53:00;1;1;
49708;PMS5003;35601;55.902;13.606;2023-07-22T12:55:25;1;1;
49708;PMS5003;35601;55.902;13.606;2023-07-22T12:57:50;1;1;
49708;PMS5003;35601;55.902;13.606;2023-07-22T13:00:15;0;0;
49708;PMS5003;35601;55.902;13.606;2023-07-22T13:02:40;1;1;
49708;PMS5003;35601;55.902;13.606;2023-07-22T13:05:06;0;0;
49708;PMS5003;35601;55.902;13.606;2023-07-22T13:07:31;0;0;
49708;PMS5003;35601;55.902;13.606;2023-07-22T13:09:56;1;1;
49708;PMS5003;35601;55.902;13.606;2023-07-22T13:12:21;1;1;
49708;PMS5003;35601;55.902;13.606;2023-07-22T13:14:46;1;1;
49708;PMS5003;35601;55.902;13.606;2023-07-22T13:17:11;1;1;
49708;PMS5003;35601;55.902;13.606;2023-07-22T13:19:36;2;2;
49708;PMS5003;35601;55.902;13.606;2023-07-22T13:22:01;0;0;
49708;PMS5003;35601;55.902;13.606;2023-07-22T13:24:26;1;1;
49708;PMS5003;35601;55.902;13.606;2023-07-22T13:26:51;1;1;
49708;PMS5003;35601;55.902;13.606;2023-07-22T13:29:16;1;1;
49708;PMS5003;35601;55.902;13.606;2023-07-22T13:31:41;2;0;
49708;PMS5003;35601;55.902;13.606;2023-07-22T13:34:06;1;1;
49708;PMS5003;35601;55.902;13.606;2023-07-22T13:36:32;0;0;
49708;PMS5003;35601;55.902;13.606;2023-07-22T13:38:57;1;1;
49708;PMS5003;35601;55.902;13.606;2023-07-22T13:41:22;2;2;
49708;PMS5003;35601;55.902;13.606;2023-07-22T13:43:47;0;0;
49708;PMS5003;35601;55.902;13.606;2023-07-22T13:46:12;0;0;
49708;PMS5003;35601;55.902;13.606;2023-07-22T13:48:37;1;1;
49708;PMS5003;35601;55.902;13.606;2023-07-22T13:51:02;1;1;
49708;PMS5003;35601;55.902;13.606;2023-07-22T13:53:27;0;0;
49708;PMS5003;35601;55.902;13.606;2023-07-22T13:55:52;1;1;
49708;PMS5003;35601;55.902;13.606;2023-07-22T13:58:17;2;1;
49708;PMS5003;35601;55.902;13.606;2023-07-22T14:00:42;1;1;
49708;PMS5003;35601;55.902;13.606;2023-07-22T14:03:08;0;0;
49708;PMS5003;35601;55.902;13.606;2023-07-22T14:05:32;1;1;
49708;PMS5003;35601;55.902;13.606;2023-07-22T14:07:58;3;0;
49708;PMS5003;35601;55.902;13.606;2023-07-22T14:10:23;2;0;
49708;PMS5003;35601;55.902;13.606;2023-07-22T14:12:48;1;1;
49708;PMS5003;35601;55.902;13.606;2023-07-22T14:15:13;1;1;
49708;PMS5003;35601;55.902;13.606;2023-07-22T14:17:38;1;1;
49708;PMS5003;35601;55.902;13.606;2023-07-22T14:20:04;2;2;
49708;PMS5003;35601;55.902;13.606;2023-07-22T14:22:28;2;1;
49708;PMS5003;35601;55.902;13.606;2023-07-22T14:24:53;0;0;
49708;PMS5003;35601;55.902;13.606;2023-07-22T14:27:18;2;2;
49708;PMS5003;35601;55.902;13.606;2023-07-22T14:29:43;2;1;
49708;PMS5003;35601;55.902;13.606;2023-07-22T14:32:09;2;2;
49708;PMS5003;35601;55.902;13.606;2023-07-22T14:34:34;1;1;
49708;PMS5003;35601;55.902;13.606;2023-07-22T14:36:59;0;0;
49708;PMS5003;35601;55.902;13.606;2023-07-22T14:39:24;1;1;
49708;PMS5003;35601;55.902;13.606;2023-07-22T14:41:49;2;2;
49708;PMS5003;35601;55.902;13.606;2023-07-22T14:44:14;1;1;
49708;PMS5003;35601;55.902;13.606;2023-07-22T14:46:39;0;0;
49708;PMS5003;35601;55.902;13.606;2023-07-22T14:49:04;0;0;
49708;PMS5003;35601;55.902;13.606;2023-07-22T14:51:29;1;1;
49708;PMS5003;35601;55.902;13.606;2023-07-22T14:53:55;1;1;
49708;PMS5003;35601;55.902;13.606;2023-07-22T14:56:20;2;1;
49708;PMS5003;35601;55.902;13.606;2023-07-22T14:58:45;1;1;
49708;PMS5003;35601;55.902;13.606;2023-07-22T15:01:10;0;0;
49708;PMS5003;35601;55.902;13.606;2023-07-22T15:03:36;2;2;
49708;PMS5003;35601;55.902;13.606;2023-07-22T15:06:00;1;1;
49708;PMS5003;35601;55.902;13.606;2023-07-22T15:08:25;2;2;
49708;PMS5003;35601;55.902;13.606;2023-07-22T15:10:50;1;0;
49708;PMS5003;35601;55.902;13.606;2023-07-22T15:13:15;2;2;
49708;PMS5003;35601;55.902;13.606;2023-07-22T15:15:40;1;1;
49708;PMS5003;35601;55.902;13.606;2023-07-22T15:18:06;2;0;
49708;PMS5003;35601;55.902;13.606;2023-07-22T15:20:31;1;1;
49708;PMS5003;35601;55.902;13.606;2023-07-22T15:22:56;1;1;
49708;PMS5003;35601;55.902;13.606;2023-07-22T15:25:21;0;0;
49708;PMS5003;35601;55.902;13.606;2023-07-22T15:27:46;2;2;
49708;PMS5003;35601;55.902;13.606;2023-07-22T15:30:11;1;1;
49708;PMS5003;35601;55.902;13.606;2023-07-22T15:32:37;1;1;
49708;PMS5003;35601;55.902;13.606;2023-07-22T15:35:01;0;0;
49708;PMS5003;35601;55.902;13.606;2023-07-22T15:37:27;1;1;
49708;PMS5003;35601;55.902;13.606;2023-07-22T15:39:52;2;0;
49708;PMS5003;35601;55.902;13.606;2023-07-22T15:42:17;3;2;
49708;PMS5003;35601;55.902;13.606;2023-07-22T15:44:42;1;1;
49708;PMS5003;35601;55.902;13.606;2023-07-22T15:47:07;0;0;
49708;PMS5003;35601;55.902;13.606;2023-07-22T15:49:32;1;1;
49708;PMS5003;35601;55.902;13.606;2023-07-22T15:51:57;2;2;
49708;PMS5003;35601;55.902;13.606;2023-07-22T15:54:22;1;1;
49708;PMS5003;35601;55.902;13.606;2023-07-22T15:56:47;4;3;
49708;PMS5003;35601;55.902;13.606;2023-07-22T15:59:13;2;1;
49708;PMS5003;35601;55.902;13.606;2023-07-22T16:01:38;1;1;
49708;PMS5003;35601;55.902;13.606;2023-07-22T16:04:03;3;2;
49708;PMS5003;35601;55.902;13.606;2023-07-22T16:06:28;0;0;
49708;PMS5003;35601;55.902;13.606;2023-07-22T16:08:53;1;1;
49708;PMS5003;35601;55.902;13.606;2023-07-22T16:11:18;1;1;
49708;PMS5003;35601;55.902;13.606;2023-07-22T16:13:43;0;0;
49708;PMS5003;35601;55.902;13.606;2023-07-22T16:16:08;1;1;
49708;PMS5003;35601;55.902;13.606;2023-07-22T16:18:33;4;3;
49708;PMS5003;35601;55.902;13.606;2023-07-22T16:20:58;2;2;
49708;PMS5003;35601;55.902;13.606;2023-07-22T16:23:24;0;0;
49708;PMS5003;35601;55.902;13.606;2023-07-22T16:25:49;0;0;
49708;PMS5003;35601;55.902;13.606;2023-07-22T16:28:14;0;0;
49708;PMS5003;35601;55.902;13.606;2023-07-22T16:30:39;3;3;
49708;PMS5003;35601;55.902;13.606;2023-07-22T16:33:04;0;0;